createdAt,value
2019-02-24T00:00:00.306Z,14.50
2019-02-24T00:02:29.156Z,14.50
2019-02-24T00:04:57.953Z,14.70
2019-02-24T00:07:26.705Z,14.50
2019-02-24T00:09:55.520Z,14.50
2019-02-24T00:12:25.730Z,15.20
2019-02-24T00:14:54.544Z,15.00
2019-02-24T00:17:24.722Z,15.60
2019-02-24T00:19:53.585Z,16.00
2019-02-24T00:22:22.413Z,16.50
2019-02-24T00:24:51.227Z,16.90
2019-02-24T00:27:19.944Z,17.40
2019-02-24T00:29:48.704Z,17.80
2019-02-24T00:32:17.373Z,18.50
2019-02-24T00:34:46.185Z,19.60
2019-02-24T00:37:15.015Z,20.40
2019-02-24T00:39:43.673Z,21.70
2019-02-24T00:42:12.577Z,21.90
2019-02-24T00:44:41.319Z,22.70
2019-02-24T00:47:10.111Z,23.00
2019-02-24T00:49:38.943Z,23.10
2019-02-24T00:52:07.666Z,24.80
2019-02-24T00:54:36.409Z,23.40
2019-02-24T00:57:05.202Z,24.20
2019-02-24T00:59:33.902Z,23.70
2019-02-24T01:02:02.749Z,23.50
2019-02-24T01:04:31.589Z,23.90
2019-02-24T01:07:00.363Z,23.80
2019-02-24T01:09:29.028Z,22.90
2019-02-24T01:11:57.761Z,22.70
2019-02-24T01:14:26.641Z,22.40
2019-02-24T01:16:56.529Z,22.40
2019-02-24T01:19:25.396Z,22.40
2019-02-24T01:21:54.200Z,23.00
2019-02-24T01:24:22.983Z,23.80
2019-02-24T01:26:51.804Z,24.30
2019-02-24T01:29:20.616Z,24.90
2019-02-24T01:31:49.288Z,25.80
2019-02-24T01:34:18.019Z,26.10
2019-02-24T01:36:46.683Z,26.10
2019-02-24T01:39:15.419Z,27.70
2019-02-24T01:41:44.149Z,27.80
2019-02-24T01:44:12.810Z,28.90
2019-02-24T01:46:41.596Z,29.40
2019-02-24T01:49:10.402Z,30.20
2019-02-24T01:51:39.082Z,32.40
2019-02-24T01:54:07.867Z,33.80
2019-02-24T01:56:36.617Z,35.60
2019-02-24T01:59:05.390Z,35.10
2019-02-24T02:01:34.192Z,35.90
2019-02-24T02:04:02.975Z,35.20
2019-02-24T02:06:31.631Z,34.60
2019-02-24T02:09:00.287Z,35.70
2019-02-24T02:11:29.041Z,36.70
2019-02-24T02:13:57.752Z,38.00
2019-02-24T02:16:26.483Z,37.00
2019-02-24T02:18:55.174Z,36.20
2019-02-24T02:21:24.010Z,35.20
2019-02-24T02:23:52.761Z,30.50
2019-02-24T02:26:21.636Z,28.70
2019-02-24T02:28:50.272Z,27.00
2019-02-24T02:31:19.151Z,25.80
2019-02-24T02:33:48.046Z,25.10
2019-02-24T02:36:16.694Z,25.00
2019-02-24T02:38:45.523Z,23.90
2019-02-24T02:41:14.233Z,25.40
2019-02-24T02:43:43.015Z,26.20
2019-02-24T02:46:11.780Z,27.80
2019-02-24T02:48:40.615Z,29.20
2019-02-24T02:51:09.601Z,31.60
2019-02-24T02:53:38.331Z,32.30
2019-02-24T02:56:07.111Z,32.20
2019-02-24T02:58:35.962Z,31.80
2019-02-24T03:01:04.747Z,33.10
2019-02-24T03:03:33.460Z,33.40
2019-02-24T03:06:03.824Z,33.70
2019-02-24T03:08:34.223Z,34.00
2019-02-24T03:11:02.999Z,34.60
2019-02-24T03:13:31.755Z,33.50
2019-02-24T03:16:00.500Z,34.50
2019-02-24T03:18:29.228Z,35.90
2019-02-24T03:20:57.986Z,37.50
2019-02-24T03:23:26.724Z,38.50
2019-02-24T03:25:55.495Z,39.50
2019-02-24T03:28:24.218Z,40.90
2019-02-24T03:30:53.219Z,41.70
2019-02-24T03:33:21.915Z,41.90
2019-02-24T03:35:52.401Z,41.50
2019-02-24T03:38:21.201Z,42.10
2019-02-24T03:40:49.955Z,41.80
2019-02-24T03:43:18.840Z,43.70
2019-02-24T03:45:47.689Z,45.20
2019-02-24T03:48:16.408Z,45.60
2019-02-24T03:50:45.214Z,45.30
2019-02-24T03:53:14.180Z,45.90
2019-02-24T03:55:42.871Z,46.60
2019-02-24T03:58:11.711Z,46.70
2019-02-24T04:00:40.476Z,46.70
2019-02-24T04:03:09.187Z,49.30
2019-02-24T04:05:37.921Z,49.40
2019-02-24T04:08:06.701Z,49.70
2019-02-24T04:10:35.505Z,50.90
2019-02-24T04:13:04.310Z,51.90
2019-02-24T04:15:33.090Z,52.60
2019-02-24T04:18:01.841Z,52.10
2019-02-24T04:20:30.461Z,51.30
2019-02-24T04:22:59.182Z,51.50
2019-02-24T04:25:27.902Z,51.60
2019-02-24T04:27:56.675Z,52.30
2019-02-24T04:30:25.514Z,53.50
2019-02-24T04:32:54.357Z,53.90
2019-02-24T04:35:23.107Z,54.70
2019-02-24T04:37:51.790Z,54.90
2019-02-24T04:40:20.449Z,54.70
2019-02-24T04:42:49.142Z,56.90
2019-02-24T04:45:19.360Z,58.20
2019-02-24T04:47:48.175Z,58.10
2019-02-24T04:50:16.967Z,58.00
2019-02-24T04:52:45.776Z,58.70
2019-02-24T04:55:14.622Z,59.50
2019-02-24T04:57:43.571Z,59.80
2019-02-24T05:00:12.477Z,60.50
2019-02-24T05:02:41.257Z,63.50
2019-02-24T05:05:10.096Z,66.00
2019-02-24T05:07:38.917Z,67.00
2019-02-24T05:10:07.861Z,70.30
2019-02-24T05:12:36.724Z,71.30
2019-02-24T05:15:06.132Z,70.50
2019-02-24T05:17:35.049Z,69.40
2019-02-24T05:20:04.488Z,68.00
2019-02-24T05:22:33.288Z,65.40
2019-02-24T05:25:02.027Z,63.90
2019-02-24T05:27:30.709Z,62.40
2019-02-24T05:29:59.431Z,61.00
2019-02-24T05:32:28.112Z,61.10
2019-02-24T05:34:56.802Z,60.40
2019-02-24T05:37:25.638Z,60.40
2019-02-24T05:39:54.447Z,61.10
2019-02-24T05:42:23.265Z,62.50
2019-02-24T05:44:52.021Z,65.50
2019-02-24T05:47:20.689Z,68.40
2019-02-24T05:49:49.498Z,67.90
2019-02-24T05:52:18.230Z,66.90
2019-02-24T05:54:47.017Z,66.90
2019-02-24T05:57:15.708Z,67.00
2019-02-24T05:59:44.509Z,67.20
2019-02-24T06:02:16.286Z,65.20
2019-02-24T06:04:44.940Z,64.80
2019-02-24T06:07:13.734Z,65.50
2019-02-24T06:09:43.407Z,67.30
2019-02-24T06:12:12.011Z,66.70
2019-02-24T06:14:42.384Z,68.60
2019-02-24T06:17:11.003Z,69.90
2019-02-24T06:19:41.895Z,72.10
2019-02-24T06:22:10.767Z,71.80
2019-02-24T06:24:39.555Z,71.70
2019-02-24T06:27:08.420Z,70.10
2019-02-24T06:29:37.113Z,67.90
2019-02-24T06:32:25.184Z,67.20
2019-02-24T06:34:53.968Z,67.90
2019-02-24T06:37:22.649Z,64.20
2019-02-24T06:39:51.413Z,62.30
2019-02-24T06:42:20.221Z,60.80
2019-02-24T06:44:49.054Z,59.30
2019-02-24T06:47:18.168Z,58.60
2019-02-24T06:49:47.132Z,57.20
2019-02-24T06:52:15.975Z,53.30
2019-02-24T06:54:44.823Z,48.80
2019-02-24T06:57:13.677Z,44.50
2019-02-24T06:59:42.430Z,40.80
2019-02-24T07:02:11.227Z,35.20
2019-02-24T07:04:47.990Z,31.00
2019-02-24T07:07:16.799Z,28.50
2019-02-24T07:09:49.368Z,25.70
2019-02-24T07:12:17.992Z,24.10
2019-02-24T07:14:46.852Z,24.80
2019-02-24T07:17:18.539Z,25.40
2019-02-24T07:19:48.804Z,26.90
2019-02-24T07:22:17.787Z,23.30
2019-02-24T07:24:49.566Z,22.70
2019-02-24T07:27:24.725Z,20.00
2019-02-24T07:29:56.041Z,16.70
2019-02-24T07:32:26.601Z,14.60
2019-02-24T07:34:55.314Z,13.00
2019-02-24T07:37:43.056Z,11.90
2019-02-24T07:40:11.910Z,12.20
2019-02-24T07:42:41.656Z,12.20
2019-02-24T07:45:10.724Z,12.90
2019-02-24T07:47:42.023Z,11.20
2019-02-24T07:50:13.851Z,10.70
2019-02-24T07:52:42.890Z,9.90
2019-02-24T07:55:11.847Z,8.20
2019-02-24T07:57:40.551Z,8.10
2019-02-24T08:00:11.490Z,6.70
2019-02-24T08:02:41.727Z,7.20
2019-02-24T08:05:10.463Z,6.80
2019-02-24T08:07:39.342Z,4.80
2019-02-24T08:10:08.550Z,2.70
2019-02-24T08:12:37.444Z,2.40
2019-02-24T08:15:08.343Z,2.20
2019-02-24T08:17:38.737Z,1.00
2019-02-24T08:20:09.751Z,1.00
2019-02-24T08:22:38.528Z,1.00
2019-02-24T08:25:08.258Z,1.00
2019-02-24T08:27:37.131Z,1.00
2019-02-24T08:30:08.738Z,1.00
2019-02-24T08:32:37.892Z,1.00
2019-02-24T08:35:07.736Z,1.00
2019-02-24T08:37:36.587Z,1.00
2019-02-24T08:40:07.624Z,1.00
2019-02-24T08:42:38.226Z,1.00
2019-02-24T08:45:12.764Z,1.00
2019-02-24T08:47:44.610Z,1.00
2019-02-24T08:50:17.603Z,1.00
2019-02-24T08:52:47.504Z,1.00
2019-02-24T08:55:16.514Z,1.00
2019-02-24T08:57:51.336Z,1.00
2019-02-24T09:00:20.230Z,1.00
2019-02-24T09:02:49.063Z,1.00
2019-02-24T09:05:18.154Z,1.00
2019-02-24T09:07:47.943Z,1.00
2019-02-24T09:10:16.730Z,1.00
2019-02-24T09:12:45.584Z,1.00
2019-02-24T09:15:15.420Z,1.00
2019-02-24T09:17:44.293Z,1.00
2019-02-24T09:20:13.966Z,1.00
2019-02-24T09:22:42.752Z,1.00
2019-02-24T09:25:11.483Z,1.00
2019-02-24T09:27:40.343Z,1.00
2019-02-24T09:30:12.362Z,1.00
2019-02-24T09:32:42.681Z,1.00
2019-02-24T09:35:12.590Z,1.00
2019-02-24T09:37:41.346Z,1.00
2019-02-24T09:40:14.390Z,1.00
2019-02-24T09:42:44.787Z,1.00
2019-02-24T09:45:13.928Z,1.00
2019-02-24T09:47:46.645Z,1.00
2019-02-24T09:50:13.285Z,1.00
2019-02-24T09:52:42.060Z,1.00
2019-02-24T09:55:13.207Z,1.00
2019-02-24T09:57:42.249Z,1.00
2019-02-24T10:00:13.792Z,1.00
2019-02-24T10:02:42.632Z,1.00
2019-02-24T10:05:11.396Z,1.00
2019-02-24T10:07:40.206Z,1.00
2019-02-24T10:10:12.832Z,1.00
2019-02-24T10:12:42.237Z,1.00
2019-02-24T10:15:13.442Z,1.00
2019-02-24T10:17:42.262Z,1.00
2019-02-24T10:20:12.455Z,1.00
2019-02-24T10:22:41.294Z,1.00
2019-02-24T10:25:10.650Z,1.00
2019-02-24T10:27:39.430Z,1.00
2019-02-24T10:30:11.069Z,1.00
2019-02-24T10:32:39.907Z,1.00
2019-02-24T10:35:09.533Z,1.00
2019-02-24T10:37:38.268Z,1.00
2019-02-24T10:40:12.384Z,1.00
2019-02-24T10:42:41.202Z,1.00
2019-02-24T10:45:12.698Z,1.00
2019-02-24T10:47:41.533Z,1.00
2019-02-24T10:50:14.028Z,1.00
2019-02-24T10:52:43.024Z,1.00
2019-02-24T10:55:12.938Z,1.00
2019-02-24T10:57:41.907Z,1.00
2019-02-24T11:00:13.749Z,1.00
2019-02-24T11:02:42.596Z,1.00
2019-02-24T11:05:11.314Z,1.00
2019-02-24T11:07:40.229Z,1.00
2019-02-24T11:10:11.133Z,1.00
2019-02-24T11:12:40.405Z,1.00
2019-02-24T11:15:10.942Z,1.00
2019-02-24T11:17:39.709Z,1.00
2019-02-24T11:20:11.094Z,1.00
2019-02-24T11:22:39.922Z,1.00
2019-02-24T11:25:10.623Z,1.00
2019-02-24T11:27:40.463Z,1.00
2019-02-24T11:30:11.130Z,1.00
2019-02-24T11:32:40.025Z,1.00
2019-02-24T11:35:10.778Z,1.00
2019-02-24T11:37:39.650Z,1.00
2019-02-24T11:40:11.654Z,1.00
2019-02-24T11:42:40.563Z,1.00
2019-02-24T11:45:12.426Z,1.00
2019-02-24T11:47:41.294Z,1.00
2019-02-24T11:50:11.411Z,1.00
2019-02-24T11:52:40.780Z,1.00
2019-02-24T11:55:10.808Z,1.00
2019-02-24T11:57:39.665Z,1.00
2019-02-24T12:00:11.397Z,1.00
2019-02-24T12:02:41.715Z,1.00
2019-02-24T12:05:11.637Z,1.00
2019-02-24T12:07:40.375Z,1.00
2019-02-24T12:10:11.034Z,1.00
2019-02-24T12:12:40.008Z,1.00
2019-02-24T12:15:11.492Z,1.00
2019-02-24T12:17:40.397Z,1.00
2019-02-24T12:20:11.085Z,1.00
2019-02-24T12:22:40.432Z,1.00
2019-02-24T12:25:11.044Z,1.00
2019-02-24T12:27:44.209Z,1.00
2019-02-24T12:30:14.556Z,1.00
2019-02-24T12:32:43.470Z,1.00
2019-02-24T12:35:12.295Z,1.00
2019-02-24T12:37:41.131Z,1.00
2019-02-24T12:40:12.739Z,1.00
2019-02-24T12:42:41.544Z,1.00
2019-02-24T12:45:11.232Z,1.00
2019-02-24T12:47:41.340Z,1.00
2019-02-24T12:50:13.338Z,1.00
2019-02-24T12:52:42.820Z,1.00
2019-02-24T12:55:16.322Z,1.00
2019-02-24T12:57:45.291Z,1.00
2019-02-24T13:00:18.119Z,1.00
2019-02-24T13:02:46.948Z,1.00
2019-02-24T13:05:16.096Z,1.00
2019-02-24T13:07:45.919Z,1.00
2019-02-24T13:10:18.773Z,1.00
2019-02-24T13:12:48.118Z,1.00
2019-02-24T13:15:16.826Z,1.00
2019-02-24T13:17:46.368Z,1.00
2019-02-24T13:20:15.299Z,1.00
2019-02-24T13:22:52.773Z,1.00
2019-02-24T13:25:21.691Z,1.00
2019-02-24T13:27:50.378Z,1.00
2019-02-24T13:30:19.538Z,1.00
2019-02-24T13:32:48.362Z,1.00
2019-02-24T13:35:19.139Z,1.00
2019-02-24T13:37:47.924Z,1.00
2019-02-24T13:40:17.337Z,1.00
2019-02-24T13:42:46.154Z,1.00
2019-02-24T13:45:17.276Z,1.00
2019-02-24T13:47:47.564Z,1.00
2019-02-24T13:50:16.580Z,1.00
2019-02-24T13:52:46.021Z,1.00
2019-02-24T13:55:15.854Z,1.00
2019-02-24T13:57:44.605Z,1.00
2019-02-24T14:00:16.389Z,1.00
2019-02-24T14:02:45.169Z,1.00
2019-02-24T14:05:14.177Z,1.00
2019-02-24T14:07:43.052Z,1.00
2019-02-24T14:10:13.428Z,1.00
2019-02-24T14:12:42.343Z,1.00
2019-02-24T14:15:13.932Z,1.00
2019-02-24T14:17:42.684Z,1.00
2019-02-24T14:20:13.267Z,1.00
2019-02-24T14:22:44.315Z,1.00
2019-02-24T14:25:14.652Z,1.00
2019-02-24T14:27:43.523Z,1.00
2019-02-24T14:30:14.381Z,1.00
2019-02-24T14:32:44.521Z,1.00
2019-02-24T14:35:15.483Z,1.00
2019-02-24T14:37:44.347Z,1.00
2019-02-24T14:40:13.968Z,1.00
2019-02-24T14:42:42.713Z,1.00
2019-02-24T14:45:14.303Z,1.00
2019-02-24T14:47:43.278Z,1.00
2019-02-24T14:50:12.384Z,1.00
2019-02-24T14:52:41.628Z,1.00
2019-02-24T14:55:12.304Z,1.00
2019-02-24T14:57:41.634Z,1.00
2019-02-24T15:00:13.289Z,1.00
2019-02-24T15:02:42.866Z,1.00
2019-02-24T15:05:16.669Z,1.00
2019-02-24T15:07:45.461Z,1.00
2019-02-24T15:10:17.160Z,1.00
2019-02-24T15:12:46.124Z,1.00
2019-02-24T15:15:17.907Z,1.00
2019-02-24T15:17:47.352Z,1.00
2019-02-24T15:20:18.800Z,1.00
2019-02-24T15:22:50.469Z,1.00
2019-02-24T15:25:21.763Z,1.00
2019-02-24T15:27:53.137Z,1.00
2019-02-24T15:30:26.201Z,1.00
2019-02-24T15:32:55.107Z,1.00
2019-02-24T15:35:25.416Z,1.00
2019-02-24T15:37:54.229Z,1.00
2019-02-24T15:40:23.115Z,1.00
2019-02-24T15:42:51.952Z,1.00
2019-02-24T15:45:21.593Z,1.00
2019-02-24T15:47:50.425Z,1.00
2019-02-24T15:50:21.551Z,1.00
2019-02-24T15:52:50.392Z,1.00
2019-02-24T15:55:19.933Z,1.00
2019-02-24T15:57:48.677Z,1.00
2019-02-24T16:00:19.982Z,1.00
2019-02-24T16:02:48.727Z,1.00
2019-02-24T16:05:17.503Z,1.00
2019-02-24T16:07:46.308Z,1.00
2019-02-24T16:10:17.487Z,1.00
2019-02-24T16:12:46.323Z,1.00
2019-02-24T16:15:17.338Z,1.00
2019-02-24T16:17:46.184Z,1.00
2019-02-24T16:20:17.711Z,1.00
2019-02-24T16:22:47.304Z,1.00
2019-02-24T16:25:16.218Z,1.00
2019-02-24T16:27:45.006Z,1.00
2019-02-24T16:30:15.833Z,1.00
2019-02-24T16:32:44.636Z,1.00
2019-02-24T16:35:15.460Z,1.00
2019-02-24T16:37:44.190Z,1.00
2019-02-24T16:40:15.927Z,1.00
2019-02-24T16:42:44.778Z,1.00
2019-02-24T16:45:15.550Z,1.00
2019-02-24T16:47:44.589Z,1.00
2019-02-24T16:50:15.725Z,1.00
2019-02-24T16:52:46.286Z,1.00
2019-02-24T16:55:17.799Z,1.00
2019-02-24T16:57:47.531Z,1.00
2019-02-24T17:00:19.073Z,1.00
2019-02-24T17:02:47.921Z,1.00
2019-02-24T17:05:17.041Z,1.00
2019-02-24T17:07:46.123Z,1.00
2019-02-24T17:10:22.076Z,1.00
2019-02-24T17:12:51.160Z,1.00
2019-02-24T17:15:20.860Z,1.00
2019-02-24T17:17:49.757Z,1.00
2019-02-24T17:20:21.080Z,1.00
2019-02-24T17:22:49.902Z,1.00
2019-02-24T17:25:18.762Z,1.00
2019-02-24T17:27:47.710Z,1.00
2019-02-24T17:30:17.108Z,1.00
2019-02-24T17:32:46.006Z,1.00
2019-02-24T17:35:15.086Z,1.00
2019-02-24T17:37:44.005Z,1.00
2019-02-24T17:40:15.070Z,1.00
2019-02-24T17:42:44.893Z,1.00
2019-02-24T17:45:14.507Z,1.00
2019-02-24T17:47:44.279Z,1.00
2019-02-24T17:50:14.487Z,1.00
2019-02-24T17:52:43.200Z,1.00
2019-02-24T17:55:15.934Z,1.00
2019-02-24T17:57:44.808Z,1.00
2019-02-24T18:00:18.182Z,1.00
2019-02-24T18:02:47.035Z,1.00
2019-02-24T18:05:15.867Z,1.00
2019-02-24T18:07:44.949Z,1.00
2019-02-24T18:10:14.941Z,1.00
2019-02-24T18:12:43.656Z,1.00
2019-02-24T18:15:13.327Z,1.00
2019-02-24T18:17:42.462Z,1.00
2019-02-24T18:20:15.486Z,1.00
2019-02-24T18:22:44.234Z,1.00
2019-02-24T18:25:13.704Z,1.00
2019-02-24T18:27:42.546Z,1.00
2019-02-24T18:30:14.370Z,1.00
2019-02-24T18:32:43.275Z,1.00
2019-02-24T18:35:12.258Z,1.00
2019-02-24T18:37:41.164Z,1.00
2019-02-24T18:40:12.686Z,1.00
2019-02-24T18:42:41.669Z,1.00
2019-02-24T18:45:12.097Z,1.00
2019-02-24T18:47:40.943Z,1.00
2019-02-24T18:50:12.600Z,1.00
2019-02-24T18:52:41.424Z,1.00
2019-02-24T18:55:12.311Z,1.00
2019-02-24T18:57:41.171Z,1.00
2019-02-24T19:00:13.217Z,1.00
2019-02-24T19:02:42.000Z,1.00
2019-02-24T19:05:11.097Z,1.00
2019-02-24T19:07:39.905Z,1.00
2019-02-24T19:10:11.648Z,1.00
2019-02-24T19:12:42.296Z,1.00
2019-02-24T19:15:17.437Z,1.00
2019-02-24T19:17:47.906Z,1.00
2019-02-24T19:20:19.872Z,1.00
2019-02-24T19:22:48.777Z,1.00
2019-02-24T19:25:20.095Z,1.00
2019-02-24T19:27:49.301Z,1.00
2019-02-24T19:30:19.900Z,1.00
2019-02-24T19:32:49.582Z,1.00
2019-02-24T19:35:20.061Z,1.00
2019-02-24T19:37:49.670Z,1.00
2019-02-24T19:40:19.673Z,1.00
2019-02-24T19:42:48.521Z,1.00
2019-02-24T19:45:19.698Z,1.00
2019-02-24T19:47:48.638Z,1.00
2019-02-24T19:50:18.324Z,1.00
2019-02-24T19:52:48.000Z,1.00
2019-02-24T19:55:17.704Z,1.00
2019-02-24T19:57:46.645Z,1.00
2019-02-24T20:00:17.765Z,1.00
2019-02-24T20:02:47.006Z,1.00
2019-02-24T20:05:15.846Z,1.00
2019-02-24T20:07:44.728Z,1.00
2019-02-24T20:10:17.198Z,1.00
2019-02-24T20:12:46.134Z,1.00
2019-02-24T20:15:16.048Z,1.00
2019-02-24T20:17:46.341Z,1.00
2019-02-24T20:20:16.652Z,1.00
2019-02-24T20:22:45.688Z,1.00
2019-02-24T20:25:17.004Z,1.00
2019-02-24T20:27:45.932Z,1.00
2019-02-24T20:30:17.580Z,1.00
2019-02-24T20:32:47.802Z,1.00
2019-02-24T20:35:16.704Z,1.00
2019-02-24T20:37:45.551Z,1.00
2019-02-24T20:40:14.332Z,1.00
2019-02-24T20:42:44.608Z,1.00
2019-02-24T20:45:15.953Z,1.00
2019-02-24T20:47:45.051Z,1.20
2019-02-24T20:50:18.241Z,2.20
2019-02-24T20:52:47.404Z,2.50
2019-02-24T20:55:16.219Z,2.90
2019-02-24T20:57:45.212Z,3.00
2019-02-24T21:00:16.831Z,3.30
2019-02-24T21:02:45.717Z,2.80
2019-02-24T21:05:14.548Z,2.60
2019-02-24T21:07:44.554Z,2.50
2019-02-24T21:10:15.039Z,2.30
2019-02-24T21:12:47.466Z,2.70
2019-02-24T21:15:17.749Z,3.50
2019-02-24T21:17:46.624Z,4.00
2019-02-24T21:20:18.602Z,4.60
2019-02-24T21:22:48.173Z,4.20
2019-02-24T21:25:17.030Z,4.60
2019-02-24T21:27:45.954Z,4.80
2019-02-24T21:30:19.224Z,5.10
2019-02-24T21:32:49.529Z,5.50
2019-02-24T21:35:18.589Z,7.00
2019-02-24T21:37:50.518Z,7.30
2019-02-24T21:40:20.408Z,7.90
2019-02-24T21:42:49.141Z,9.60
2019-02-24T21:45:20.776Z,10.40
2019-02-24T21:47:50.900Z,9.80
2019-02-24T21:50:19.791Z,9.60
2019-02-24T21:52:48.577Z,9.70
2019-02-24T21:55:17.714Z,10.40
2019-02-24T21:57:47.997Z,12.00
2019-02-24T22:00:19.906Z,10.30
2019-02-24T22:02:48.751Z,11.00
2019-02-24T22:05:18.303Z,9.90
2019-02-24T22:07:47.112Z,11.30
2019-02-24T22:10:16.710Z,11.90
2019-02-24T22:12:45.566Z,12.60
2019-02-24T22:15:16.726Z,12.60
2019-02-24T22:17:45.455Z,11.50
2019-02-24T22:20:15.418Z,11.60
2019-02-24T22:22:44.898Z,10.10
2019-02-24T22:25:15.801Z,10.50
2019-02-24T22:27:45.966Z,12.30
2019-02-24T22:30:18.385Z,14.70
2019-02-24T22:32:47.716Z,16.80
2019-02-24T22:35:18.859Z,19.00
2019-02-24T22:37:48.391Z,19.40
2019-02-24T22:40:23.021Z,19.90
2019-02-24T22:42:55.905Z,19.50
2019-02-24T22:45:26.431Z,19.90
2019-02-24T22:48:03.079Z,21.00
2019-02-24T22:50:35.109Z,22.40
2019-02-24T22:53:06.173Z,22.10
2019-02-24T22:55:42.291Z,21.00
2019-02-24T22:58:14.084Z,22.90
2019-02-24T23:00:50.850Z,24.10
2019-02-24T23:03:39.979Z,25.10
2019-02-24T23:06:10.294Z,26.30
2019-02-24T23:08:43.237Z,26.10
2019-02-24T23:11:14.115Z,25.20
2019-02-24T23:13:46.231Z,23.70
2019-02-24T23:16:17.540Z,22.30
2019-02-24T23:18:48.365Z,23.50
2019-02-24T23:21:17.523Z,24.60
2019-02-24T23:23:56.698Z,26.00
2019-02-24T23:26:26.344Z,26.50
2019-02-24T23:28:55.984Z,27.50
2019-02-24T23:31:30.487Z,28.70
2019-02-24T23:33:59.510Z,29.00
2019-02-24T23:36:28.629Z,29.60
2019-02-24T23:39:01.198Z,28.10
2019-02-24T23:41:31.928Z,26.40
2019-02-24T23:44:02.869Z,25.00
2019-02-24T23:46:37.638Z,25.60
2019-02-24T23:49:08.661Z,25.60
2019-02-24T23:51:43.761Z,22.10
2019-02-24T23:54:13.574Z,20.50
2019-02-24T23:56:44.984Z,20.80
2019-02-24T23:59:14.451Z,21.70
